createdAt,value
2018-04-29T00:03:37.511Z,11.80
2018-04-29T00:08:29.735Z,11.50
2018-04-29T00:13:21.226Z,11.40
2018-04-29T00:18:12.735Z,11.30
2018-04-29T00:23:04.259Z,11.10
2018-04-29T00:27:56.477Z,10.90
2018-04-29T00:32:48.055Z,10.80
2018-04-29T00:37:41.016Z,10.70
2018-04-29T00:42:33.223Z,10.70
2018-04-29T00:47:24.701Z,10.70
2018-04-29T00:52:16.934Z,10.70
2018-04-29T00:57:09.137Z,10.60
2018-04-29T01:02:00.628Z,10.60
2018-04-29T01:06:52.861Z,10.60
2018-04-29T01:11:44.376Z,10.60
2018-04-29T01:16:35.902Z,10.40
2018-04-29T01:21:27.390Z,10.30
2018-04-29T01:26:18.916Z,10.20
2018-04-29T01:31:10.437Z,10.20
2018-04-29T01:36:02.721Z,10.30
2018-04-29T01:40:54.247Z,10.20
2018-04-29T01:45:45.816Z,10.30
2018-04-29T01:50:37.311Z,10.30
2018-04-29T01:55:28.823Z,10.20
2018-04-29T02:00:21.067Z,10.10
2018-04-29T02:05:12.551Z,10.00
2018-04-29T02:10:04.045Z,10.00
2018-04-29T02:14:56.267Z,9.80
2018-04-29T02:19:47.804Z,9.80
2018-04-29T02:24:39.309Z,9.80
2018-04-29T02:29:30.839Z,9.80
2018-04-29T02:34:22.352Z,9.70
2018-04-29T02:39:13.845Z,9.60
2018-04-29T02:44:05.334Z,9.50
2018-04-29T02:48:56.844Z,9.40
2018-04-29T02:53:49.073Z,9.30
2018-04-29T02:58:41.373Z,9.30
2018-04-29T03:03:32.858Z,9.30
2018-04-29T03:08:25.094Z,9.30
2018-04-29T03:13:17.328Z,9.20
2018-04-29T03:18:08.831Z,9.10
2018-04-29T03:23:00.358Z,9.10
2018-04-29T03:27:51.859Z,9.20
2018-04-29T03:32:44.090Z,9.20
2018-04-29T03:37:35.585Z,9.10
2018-04-29T03:42:27.053Z,9.20
2018-04-29T03:47:18.519Z,9.20
2018-04-29T03:52:10.769Z,9.10
2018-04-29T03:57:21.651Z,9.20
2018-04-29T04:02:32.498Z,9.20
2018-04-29T04:07:23.996Z,9.10
2018-04-29T04:12:15.474Z,9.20
2018-04-29T04:17:06.970Z,9.30
2018-04-29T04:21:58.468Z,9.40
2018-04-29T04:26:50.701Z,9.60
2018-04-29T04:31:42.199Z,9.50
2018-04-29T04:36:33.734Z,9.60
2018-04-29T04:41:25.224Z,9.80
2018-04-29T04:46:17.466Z,10.30
2018-04-29T04:51:09.921Z,10.20
2018-04-29T04:56:01.438Z,10.50
2018-04-29T05:00:53.691Z,10.90
2018-04-29T05:05:46.664Z,11.00
2018-04-29T05:10:38.184Z,11.00
2018-04-29T05:15:29.679Z,11.20
2018-04-29T05:20:21.189Z,11.00
2018-04-29T05:25:13.451Z,10.80
2018-04-29T05:30:04.947Z,10.80
2018-04-29T05:34:56.432Z,10.80
2018-04-29T05:39:47.915Z,10.80
2018-04-29T05:44:40.899Z,11.10
2018-04-29T05:49:33.127Z,11.00
2018-04-29T05:54:24.609Z,10.90
2018-04-29T05:59:16.120Z,11.20
2018-04-29T06:04:08.402Z,11.40
2018-04-29T06:08:59.860Z,11.30
2018-04-29T06:13:51.368Z,11.60
2018-04-29T06:18:42.846Z,11.50
2018-04-29T06:23:36.035Z,11.20
2018-04-29T06:28:27.538Z,11.20
2018-04-29T06:33:19.022Z,11.20
2018-04-29T06:38:11.251Z,11.60
2018-04-29T06:43:02.863Z,11.50
2018-04-29T06:47:54.434Z,11.80
2018-04-29T06:52:46.673Z,12.50
2018-04-29T06:57:38.143Z,12.50
2018-04-29T07:02:29.637Z,12.30
2018-04-29T07:07:21.141Z,11.90
2018-04-29T07:12:12.648Z,11.70
2018-04-29T07:17:04.200Z,11.70
2018-04-29T07:21:55.750Z,11.90
2018-04-29T07:26:47.258Z,12.50
2018-04-29T07:31:38.757Z,14.20
2018-04-29T07:36:30.992Z,14.40
2018-04-29T07:41:22.474Z,14.30
2018-04-29T07:46:13.965Z,14.70
2018-04-29T07:51:06.201Z,13.50
2018-04-29T07:55:57.710Z,13.40
2018-04-29T08:00:49.288Z,13.50
2018-04-29T08:05:40.729Z,13.20
2018-04-29T08:10:32.976Z,13.00
2018-04-29T08:15:25.289Z,12.80
2018-04-29T08:20:16.763Z,12.70
2018-04-29T08:25:09.076Z,12.20
2018-04-29T08:30:00.644Z,12.10
2018-04-29T08:34:52.132Z,12.50
2018-04-29T08:39:43.657Z,13.80
2018-04-29T08:44:35.126Z,14.70
2018-04-29T08:49:26.783Z,15.10
2018-04-29T08:54:19.040Z,15.10
2018-04-29T08:59:11.309Z,14.40
2018-04-29T09:04:02.859Z,14.40
2018-04-29T09:08:54.376Z,14.90
2018-04-29T09:13:45.899Z,15.40
2018-04-29T09:18:37.378Z,15.00
2018-04-29T09:23:28.870Z,15.50
2018-04-29T09:28:20.356Z,15.20
2018-04-29T09:33:13.329Z,19.40
2018-04-29T09:38:04.833Z,19.40
2018-04-29T09:42:56.344Z,19.20
2018-04-29T09:47:47.856Z,20.70
2018-04-29T09:52:40.059Z,16.70
2018-04-29T09:57:31.549Z,16.60
2018-04-29T10:02:23.106Z,16.40
2018-04-29T10:07:14.582Z,17.50
2018-04-29T10:12:06.137Z,16.80
2018-04-29T10:16:58.380Z,16.90
2018-04-29T10:21:50.600Z,17.40
2018-04-29T10:26:42.105Z,17.40
2018-04-29T10:31:33.615Z,17.30
2018-04-29T10:36:25.870Z,17.00
2018-04-29T10:41:18.118Z,16.80
2018-04-29T10:46:09.640Z,16.80
2018-04-29T10:51:01.879Z,16.90
2018-04-29T10:55:53.393Z,16.80
2018-04-29T11:00:44.907Z,17.60
2018-04-29T11:05:36.411Z,18.20
2018-04-29T11:10:27.894Z,18.60
2018-04-29T11:15:19.580Z,19.20
2018-04-29T11:20:11.098Z,18.70
2018-04-29T11:25:03.377Z,17.60
2018-04-29T11:29:54.872Z,17.60
2018-04-29T11:34:47.083Z,16.60
2018-04-29T11:39:38.561Z,16.50
2018-04-29T11:44:30.790Z,17.40
2018-04-29T11:49:22.378Z,17.30
2018-04-29T11:54:13.882Z,17.80
2018-04-29T11:59:06.094Z,18.60
2018-04-29T12:03:57.619Z,18.60
2018-04-29T12:08:49.095Z,19.40
2018-04-29T12:13:41.369Z,19.90
2018-04-29T12:18:33.635Z,19.90
2018-04-29T12:23:25.117Z,19.90
2018-04-29T12:28:16.622Z,20.60
2018-04-29T12:33:08.120Z,20.70
2018-04-29T12:37:59.609Z,21.00
2018-04-29T12:42:51.137Z,21.10
2018-04-29T12:47:42.635Z,21.10
2018-04-29T12:52:34.123Z,21.20
2018-04-29T12:57:25.626Z,21.50
2018-04-29T13:02:17.134Z,21.30
2018-04-29T13:07:08.621Z,21.00
2018-04-29T13:12:00.124Z,20.70
2018-04-29T13:16:51.681Z,21.10
2018-04-29T13:21:43.159Z,21.50
2018-04-29T13:26:34.670Z,21.50
2018-04-29T13:31:26.907Z,21.70
2018-04-29T13:36:18.394Z,21.60
2018-04-29T13:41:09.913Z,21.20
2018-04-29T13:46:01.443Z,21.00
2018-04-29T13:50:52.963Z,21.60
2018-04-29T13:55:45.198Z,21.90
2018-04-29T14:00:36.734Z,21.90
2018-04-29T14:05:28.967Z,21.20
2018-04-29T14:10:20.482Z,21.10
2018-04-29T14:15:11.955Z,21.30
2018-04-29T14:20:04.256Z,21.50
2018-04-29T14:24:55.744Z,21.40
2018-04-29T14:29:48.024Z,21.10
2018-04-29T14:34:39.504Z,21.00
2018-04-29T14:39:31.027Z,20.50
2018-04-29T14:44:22.583Z,20.40
2018-04-29T14:49:14.093Z,20.70
2018-04-29T14:54:05.725Z,21.00
2018-04-29T14:58:57.251Z,20.90
2018-04-29T15:03:48.785Z,20.90
2018-04-29T15:08:40.322Z,21.10
2018-04-29T15:13:31.788Z,21.70
2018-04-29T15:18:41.798Z,22.40
2018-04-29T15:23:33.337Z,22.10
2018-04-29T15:28:24.859Z,21.60
2018-04-29T15:33:16.348Z,21.70
2018-04-29T15:38:07.840Z,22.10
2018-04-29T15:42:59.356Z,22.40
2018-04-29T15:47:50.844Z,22.40
2018-04-29T15:52:42.337Z,22.10
2018-04-29T15:57:33.866Z,21.70
2018-04-29T16:02:25.354Z,21.80
2018-04-29T16:07:17.621Z,22.10
2018-04-29T16:12:09.853Z,22.40
2018-04-29T16:17:01.349Z,22.30
2018-04-29T16:21:52.851Z,22.80
2018-04-29T16:26:45.107Z,23.20
2018-04-29T16:31:36.596Z,23.20
2018-04-29T16:36:28.114Z,23.30
2018-04-29T16:41:20.358Z,23.20
2018-04-29T16:46:11.872Z,22.90
2018-04-29T16:51:03.396Z,22.70
2018-04-29T16:55:54.885Z,22.80
2018-04-29T17:00:46.395Z,22.90
2018-04-29T17:05:37.862Z,22.70
2018-04-29T17:10:29.365Z,22.40
2018-04-29T17:15:21.658Z,22.20
2018-04-29T17:20:13.892Z,21.70
2018-04-29T17:25:06.003Z,21.60
2018-04-29T17:29:57.482Z,21.50
2018-04-29T17:34:48.993Z,21.50
2018-04-29T17:39:40.496Z,21.60
2018-04-29T17:44:32.000Z,21.60
2018-04-29T17:49:24.261Z,21.10
2018-04-29T17:54:15.796Z,21.10
2018-04-29T17:59:08.058Z,20.70
2018-04-29T18:03:59.569Z,20.60
2018-04-29T18:08:51.816Z,20.30
2018-04-29T18:13:44.069Z,20.20
2018-04-29T18:18:36.319Z,20.10
2018-04-29T18:23:28.539Z,19.90
2018-04-29T18:28:20.049Z,19.90
2018-04-29T18:33:11.574Z,19.80
2018-04-29T18:38:03.083Z,19.80
2018-04-29T18:42:55.325Z,19.70
2018-04-29T18:47:47.542Z,19.60
2018-04-29T18:52:39.044Z,19.50
2018-04-29T18:57:30.548Z,19.60
2018-04-29T19:02:22.811Z,19.50
2018-04-29T19:07:14.292Z,19.40
2018-04-29T19:12:05.836Z,19.50
2018-04-29T19:16:57.351Z,19.40
2018-04-29T19:21:49.195Z,19.40
2018-04-29T19:26:40.698Z,19.40
2018-04-29T19:31:32.838Z,19.40
2018-04-29T19:36:24.211Z,19.30
2018-04-29T19:41:15.699Z,19.30
2018-04-29T19:46:07.220Z,19.20
2018-04-29T19:50:59.446Z,19.00
2018-04-29T19:55:50.930Z,19.00
2018-04-29T20:00:42.445Z,19.00
2018-04-29T20:05:34.685Z,18.90
2018-04-29T20:10:27.002Z,18.80
2018-04-29T20:15:18.519Z,18.80
2018-04-29T20:20:10.032Z,18.80
2018-04-29T20:25:01.531Z,18.70
2018-04-29T20:29:53.758Z,18.80
2018-04-29T20:34:45.250Z,18.70
2018-04-29T20:39:36.736Z,18.70
2018-04-29T20:44:28.439Z,18.70
2018-04-29T20:49:19.983Z,18.80
2018-04-29T20:54:11.503Z,18.70
2018-04-29T20:59:03.021Z,18.70
2018-04-29T21:03:54.499Z,18.60
2018-04-29T21:08:45.992Z,18.60
2018-04-29T21:13:37.545Z,18.50
2018-04-29T21:18:29.753Z,18.20
2018-04-29T21:23:21.251Z,18.20
2018-04-29T21:28:12.742Z,18.20
2018-04-29T21:33:04.271Z,18.10
2018-04-29T21:37:55.755Z,18.10
2018-04-29T21:42:47.257Z,18.10
2018-04-29T21:47:38.746Z,17.90
2018-04-29T21:52:30.962Z,17.70
2018-04-29T21:57:22.505Z,17.60
2018-04-29T22:02:14.062Z,17.60
2018-04-29T22:07:06.330Z,17.50
2018-04-29T22:11:58.556Z,17.30
2018-04-29T22:16:50.090Z,17.30
2018-04-29T22:21:42.452Z,17.20
2018-04-29T22:26:33.879Z,17.20
2018-04-29T22:31:26.133Z,16.30
2018-04-29T22:36:18.393Z,16.10
2018-04-29T22:41:10.633Z,16.10
2018-04-29T22:46:02.926Z,16.10
2018-04-29T22:50:55.271Z,16.10
2018-04-29T22:55:46.871Z,16.10
2018-04-29T23:00:38.359Z,15.70
2018-04-29T23:05:30.023Z,15.70
2018-04-29T23:10:21.518Z,15.30
2018-04-29T23:15:13.025Z,15.10
2018-04-29T23:20:05.255Z,15.00
2018-04-29T23:24:56.772Z,15.00
2018-04-29T23:29:48.266Z,14.90
2018-04-29T23:34:39.861Z,14.70
2018-04-29T23:39:31.380Z,14.60
2018-04-29T23:44:22.889Z,14.50
2018-04-29T23:49:14.411Z,14.40
2018-04-29T23:54:05.916Z,14.40
2018-04-29T23:58:57.424Z,14.30
